Time;durP1;ratioP1;P1;durP2;ratioP2;P2;SDS_P1;SDS_P2;PMS_P1;PMS_P2;Temp;Humidity;BMP_temperature;BMP_pressure;BME280_temperature;BME280_humidity;BME280_pressure;Samples;Min_cycle;Max_cycle;Signal;HPM_P1;HPM_P2
2022/11/21 00:00:49;;;;;;;17.80;10.43;;;2.20;99.90;;;;;;4893108;29;20295;-81
2022/11/21 00:03:14;;;;;;;17.52;10.32;;;2.20;99.90;;;;;;4874684;29;20075;-88
2022/11/21 00:05:42;;;;;;;14.98;8.88;;;2.20;99.90;;;;;;4892645;29;20072;-87
2022/11/21 00:08:10;;;;;;;13.50;8.20;;;2.20;99.90;;;;;;4888075;29;20108;-86
2022/11/21 00:10:38;;;;;;;16.65;10.02;;;2.20;99.90;;;;;;4904086;29;20434;-88
2022/11/21 00:13:04;;;;;;;18.42;10.60;;;2.20;99.90;;;;;;4888184;29;20104;-85
2022/11/21 00:15:30;;;;;;;16.35;9.30;;;2.10;99.90;;;;;;4906047;29;20076;-84
2022/11/21 00:17:56;;;;;;;25.58;14.93;;;2.10;99.90;;;;;;4894438;29;20033;-88
2022/11/21 00:20:22;;;;;;;18.65;10.38;;;2.10;99.90;;;;;;4889633;29;20127;-86
2022/11/21 00:22:48;;;;;;;19.20;11.00;;;2.10;99.90;;;;;;4888357;29;20492;-90
2022/11/21 00:25:14;;;;;;;17.02;10.20;;;2.20;99.90;;;;;;4888547;29;20064;-90
2022/11/21 00:27:40;;;;;;;18.05;11.25;;;2.10;99.90;;;;;;4904079;29;20032;-87
2022/11/21 00:30:07;;;;;;;17.95;11.23;;;2.10;99.90;;;;;;4904782;29;20065;-90
2022/11/21 00:32:34;;;;;;;17.23;10.95;;;2.00;99.90;;;;;;4890346;29;20025;-81
2022/11/21 00:34:59;;;;;;;23.00;13.73;;;2.10;99.90;;;;;;4900775;29;20032;-83
2022/11/21 00:37:25;;;;;;;19.70;13.15;;;2.00;99.90;;;;;;4874218;29;20052;-90
2022/11/21 00:39:51;;;;;;;18.55;12.60;;;2.00;99.90;;;;;;4890686;29;20513;-91
2022/11/21 00:42:16;;;;;;;18.88;11.20;;;2.00;99.90;;;;;;4889598;29;20033;-83
2022/11/21 00:44:42;;;;;;;21.25;12.77;;;2.00;99.90;;;;;;4892722;29;20037;-90
2022/11/21 00:47:08;;;;;;;17.95;10.63;;;2.10;99.90;;;;;;4889959;29;20380;-88
2022/11/21 00:49:33;;;;;;;16.70;10.02;;;2.00;99.90;;;;;;4886372;29;20560;-88
2022/11/21 00:51:59;;;;;;;16.17;9.02;;;2.10;99.90;;;;;;4887333;29;20024;-78
2022/11/21 00:54:25;;;;;;;13.90;8.13;;;2.20;99.90;;;;;;4893477;29;20657;-90
2022/11/21 00:56:50;;;;;;;12.38;7.38;;;2.10;99.90;;;;;;4889566;29;20081;-90
2022/11/21 00:59:16;;;;;;;11.32;7.05;;;2.10;99.90;;;;;;4891699;29;20040;-88
2022/11/21 01:01:42;;;;;;;9.48;5.60;;;2.10;99.90;;;;;;4902822;29;20040;-88
2022/11/21 01:04:07;;;;;;;11.10;6.80;;;2.10;99.90;;;;;;4892259;29;20036;-84
2022/11/21 01:06:35;;;;;;;12.98;8.18;;;2.00;99.90;;;;;;4908323;29;20025;-86
2022/11/21 01:09:01;;;;;;;14.25;8.07;;;2.10;99.90;;;;;;4880034;29;20040;-90
2022/11/21 01:11:28;;;;;;;12.85;7.57;;;2.00;99.90;;;;;;4876573;29;20100;-85
2022/11/21 01:13:53;;;;;;;11.50;7.53;;;2.00;99.90;;;;;;4895222;29;20043;-91
2022/11/21 01:16:24;;;;;;;14.20;7.78;;;2.10;99.90;;;;;;4899573;29;20036;-85
2022/11/21 01:18:51;;;;;;;11.25;6.72;;;2.10;99.90;;;;;;4875570;29;20409;-91
2022/11/21 01:21:28;;;;;;;12.07;6.93;;;2.10;99.90;;;;;;4893268;29;20028;-89
2022/11/21 01:23:55;;;;;;;12.13;7.45;;;2.20;99.90;;;;;;4890177;29;20032;-89
2022/11/21 01:26:23;;;;;;;13.43;7.32;;;2.10;99.90;;;;;;4909005;29;20024;-89
2022/11/21 01:28:49;;;;;;;11.65;7.05;;;2.10;99.90;;;;;;4892030;29;20413;-89
2022/11/21 01:31:21;;;;;;;13.32;7.65;;;2.10;99.90;;;;;;4900069;29;20036;-88
2022/11/21 01:33:47;;;;;;;10.07;5.70;;;2.10;99.90;;;;;;4876574;29;20489;-92
2022/11/21 01:36:19;;;;;;;15.68;8.38;;;2.10;99.90;;;;;;4893455;29;20044;-81
2022/11/21 01:38:47;;;;;;;15.77;9.43;;;2.10;99.90;;;;;;4892495;29;20057;-92
2022/11/21 01:41:16;;;;;;;15.52;8.55;;;2.10;99.90;;;;;;4891334;29;20111;-84
2022/11/21 01:43:42;;;;;;;13.15;8.52;;;2.10;99.90;;;;;;4890656;29;20025;-88
2022/11/21 01:46:07;;;;;;;14.15;8.02;;;2.10;99.90;;;;;;4906872;29;20510;-92
2022/11/21 01:48:57;;;;;;;14.65;8.35;;;2.20;99.90;;;;;;4875684;29;20127;-88
2022/11/21 01:52:01;;;;;;;12.73;7.43;;;2.10;99.90;;;;;;4906052;29;20037;-86
2022/11/21 01:54:41;;;;;;;10.95;6.70;;;2.10;99.90;;;;;;4869570;29;20048;-83
2022/11/21 01:57:30;;;;;;;14.65;8.13;;;2.20;99.90;;;;;;4902777;29;20284;-89
2022/11/21 02:00:07;;;;;;;14.35;6.97;;;2.00;99.90;;;;;;4890165;29;20366;-91
2022/11/21 02:02:38;;;;;;;11.60;6.72;;;2.00;99.90;;;;;;4895551;29;20065;-85
2022/11/21 02:05:07;;;;;;;13.43;6.65;;;2.00;99.90;;;;;;4890977;29;20028;-87
2022/11/21 02:07:38;;;;;;;11.93;7.65;;;2.10;99.90;;;;;;4894499;29;20068;-87
2022/11/21 02:10:05;;;;;;;14.23;7.88;;;2.10;99.90;;;;;;4875948;29;20052;-88
2022/11/21 02:12:46;;;;;;;17.58;8.50;;;2.10;99.90;;;;;;4888386;29;20037;-84
2022/11/21 02:15:12;;;;;;;13.68;7.85;;;2.10;99.90;;;;;;4890653;29;20031;-89
2022/11/21 02:17:38;;;;;;;14.82;8.60;;;2.10;99.90;;;;;;4906844;29;20025;-85
2022/11/21 02:20:10;;;;;;;15.15;8.07;;;2.10;99.90;;;;;;4876338;29;20036;-90
2022/11/21 02:22:52;;;;;;;12.35;6.85;;;2.10;99.90;;;;;;4889871;29;20029;-88
2022/11/21 02:25:20;;;;;;;14.43;7.68;;;2.00;99.90;;;;;;4892342;29;20426;-88
2022/11/21 02:27:49;;;;;;;16.92;8.77;;;2.00;99.90;;;;;;4906378;29;20365;-89
2022/11/21 02:30:16;;;;;;;13.07;7.25;;;2.10;99.90;;;;;;4890270;29;20040;-85
2022/11/21 02:32:46;;;;;;;11.23;7.00;;;2.10;99.90;;;;;;4894355;29;20059;-92
2022/11/21 02:35:14;;;;;;;15.02;7.57;;;2.00;99.90;;;;;;4887246;29;20448;-84
2022/11/21 02:37:41;;;;;;;12.85;7.45;;;2.10;99.90;;;;;;4904337;29;20442;-84
2022/11/21 02:40:11;;;;;;;14.00;7.60;;;2.10;99.90;;;;;;4906271;29;20040;-92
2022/11/21 02:43:12;;;;;;;14.35;8.05;;;2.10;99.90;;;;;;4875159;29;20080;-81
2022/11/21 02:45:43;;;;;;;14.27;7.82;;;2.10;99.90;;;;;;4890001;29;20067;-89
2022/11/21 02:48:09;;;;;;;14.98;8.90;;;2.10;99.90;;;;;;4890030;29;20087;-81
2022/11/21 02:50:37;;;;;;;15.85;8.93;;;2.10;99.90;;;;;;4892172;29;20481;-92
2022/11/21 02:53:05;;;;;;;15.15;8.75;;;2.10;99.90;;;;;;4890671;29;20044;-90
2022/11/21 02:55:31;;;;;;;15.57;8.10;;;2.10;99.90;;;;;;4891656;29;20064;-82
2022/11/21 02:57:57;;;;;;;14.77;8.52;;;2.10;99.90;;;;;;4898156;29;20094;-91
2022/11/21 03:00:23;;;;;;;15.85;8.93;;;2.10;99.90;;;;;;4899787;29;20080;-81
2022/11/21 03:02:49;;;;;;;16.95;9.95;;;2.10;99.90;;;;;;4888434;29;20031;-89
2022/11/21 03:05:17;;;;;;;14.90;8.25;;;2.10;99.90;;;;;;4875317;29;20037;-88
2022/11/21 03:07:43;;;;;;;12.30;7.50;;;2.10;99.90;;;;;;4888974;29;20520;-87
2022/11/21 03:10:10;;;;;;;16.38;8.73;;;2.10;99.90;;;;;;4899246;29;20573;-81
2022/11/21 03:12:40;;;;;;;17.70;9.35;;;2.00;99.90;;;;;;4893519;29;20028;-84
2022/11/21 03:15:08;;;;;;;14.85;8.07;;;2.10;99.90;;;;;;4889670;29;20108;-92
2022/11/21 03:17:34;;;;;;;13.13;7.07;;;2.10;99.90;;;;;;4876435;29;20036;-87
2022/11/21 03:19:59;;;;;;;15.10;8.65;;;2.00;99.90;;;;;;4905397;29;20092;-80
2022/11/21 03:22:25;;;;;;;12.43;6.25;;;2.00;99.90;;;;;;4876002;29;20057;-85
2022/11/21 03:24:51;;;;;;;14.80;8.32;;;1.90;99.90;;;;;;4874949;29;20039;-81
2022/11/21 03:27:16;;;;;;;14.43;7.72;;;1.80;99.90;;;;;;4891676;29;20032;-90
2022/11/21 03:29:42;;;;;;;13.82;7.80;;;1.80;99.90;;;;;;4886622;29;20041;-85
2022/11/21 03:32:08;;;;;;;16.95;8.93;;;1.80;99.90;;;;;;4874642;29;20028;-84
2022/11/21 03:34:34;;;;;;;13.23;7.40;;;1.70;99.90;;;;;;4905271;29;20032;-85
2022/11/21 03:36:59;;;;;;;14.40;7.95;;;1.70;99.90;;;;;;4902464;29;20048;-91
2022/11/21 03:39:25;;;;;;;14.63;8.30;;;1.70;99.90;;;;;;4892772;29;20036;-84
2022/11/21 03:41:51;;;;;;;13.70;7.60;;;1.70;99.90;;;;;;4897680;29;20511;-91
2022/11/21 03:44:16;;;;;;;15.15;7.65;;;1.60;99.90;;;;;;4889364;29;20494;-88
2022/11/21 03:46:45;;;;;;;16.52;7.93;;;1.60;99.90;;;;;;4891220;29;20504;-87
2022/11/21 03:49:12;;;;;;;16.25;6.80;;;1.60;99.90;;;;;;4890286;29;20133;-81
2022/11/21 03:51:38;;;;;;;15.32;7.80;;;1.60;99.90;;;;;;4898640;29;20048;-88
2022/11/21 03:54:05;;;;;;;16.60;7.90;;;1.60;99.90;;;;;;4889164;29;20040;-92
2022/11/21 03:56:31;;;;;;;13.73;7.30;;;1.60;99.90;;;;;;4874009;29;20115;-86
2022/11/21 03:58:56;;;;;;;15.90;7.80;;;1.60;99.90;;;;;;4892047;29;20601;-90
2022/11/21 04:01:23;;;;;;;13.60;7.63;;;1.70;99.90;;;;;;4873033;29;20450;-81
2022/11/21 04:03:49;;;;;;;14.02;7.68;;;1.70;99.90;;;;;;4876426;29;20442;-89
2022/11/21 04:06:17;;;;;;;14.43;6.80;;;1.70;99.90;;;;;;4905587;29;20039;-91
2022/11/21 04:08:43;;;;;;;14.40;7.63;;;1.60;99.90;;;;;;4872079;29;20486;-87
2022/11/21 04:11:09;;;;;;;14.73;7.93;;;1.70;99.90;;;;;;4876449;29;20080;-82
2022/11/21 04:13:35;;;;;;;12.35;7.07;;;1.70;99.90;;;;;;4871195;29;20484;-90
2022/11/21 04:16:01;;;;;;;15.68;7.95;;;1.70;99.90;;;;;;4900528;29;20104;-89
2022/11/21 04:18:27;;;;;;;14.73;6.78;;;1.70;99.90;;;;;;4887400;29;20040;-88
2022/11/21 04:20:57;;;;;;;16.92;8.82;;;1.70;99.90;;;;;;4903424;29;20057;-83
2022/11/21 04:23:23;;;;;;;;;;;1.60;99.90;;;;;;4905203;29;20138;-87
2022/11/21 04:25:48;;;;;;;16.33;7.18;;;1.50;99.90;;;;;;4904555;29;19918;-85
2022/11/21 04:28:14;;;;;;;11.65;6.68;;;1.60;99.90;;;;;;4904516;29;20053;-89
2022/11/21 04:30:40;;;;;;;12.05;5.93;;;1.70;99.90;;;;;;4894762;29;20080;-85
2022/11/21 04:33:06;;;;;;;15.07;7.75;;;1.70;99.90;;;;;;4902629;29;20025;-87
2022/11/21 04:35:32;;;;;;;13.40;7.20;;;1.70;99.90;;;;;;4895147;29;20389;-85
2022/11/21 04:37:57;;;;;;;12.43;7.28;;;1.60;99.90;;;;;;4893293;29;20049;-90
2022/11/21 04:40:23;;;;;;;13.88;7.57;;;1.70;99.90;;;;;;4879214;29;20031;-89
2022/11/21 04:42:49;;;;;;;17.55;9.43;;;1.70;99.90;;;;;;4907321;29;20033;-84
2022/11/21 04:45:15;;;;;;;18.05;9.18;;;1.70;99.90;;;;;;4879977;29;20116;-85
2022/11/21 04:47:43;;;;;;;16.55;8.27;;;1.70;99.90;;;;;;4891245;29;20025;-89
2022/11/21 04:50:10;;;;;;;14.32;7.68;;;1.70;99.90;;;;;;4895053;29;20629;-90
2022/11/21 04:52:36;;;;;;;16.98;8.07;;;1.70;99.90;;;;;;4892463;29;20033;-81
2022/11/21 04:55:03;;;;;;;16.50;8.73;;;1.70;99.90;;;;;;4907245;29;20568;-85
2022/11/21 04:57:30;;;;;;;16.50;7.85;;;1.70;99.90;;;;;;4905026;29;20156;-89
2022/11/21 04:59:57;;;;;;;17.85;8.88;;;1.70;99.90;;;;;;4891809;29;20052;-89
2022/11/21 05:02:23;;;;;;;15.25;8.45;;;1.70;99.90;;;;;;4893247;29;20035;-88
2022/11/21 05:04:49;;;;;;;15.38;8.13;;;1.80;99.90;;;;;;4889503;29;20041;-81
2022/11/21 05:07:15;;;;;;;15.52;7.68;;;1.80;99.90;;;;;;4892903;29;20042;-90
2022/11/21 05:09:40;;;;;;;13.88;7.25;;;1.80;99.90;;;;;;4907073;29;20040;-86
2022/11/21 05:14:53;;;;;;;14.75;7.05;;;1.80;99.90;;;;;;4908448;29;20041;-82
2022/11/21 05:17:19;;;;;;;10.77;5.70;;;1.80;99.90;;;;;;4891476;29;20078;-89
2022/11/21 05:19:45;;;;;;;14.25;7.60;;;1.90;99.90;;;;;;4895880;29;20043;-88
2022/11/21 05:22:11;;;;;;;12.50;6.97;;;1.80;99.90;;;;;;4889597;29;20033;-92
2022/11/21 05:24:37;;;;;;;13.15;6.70;;;1.80;99.90;;;;;;4893241;29;20052;-84
2022/11/21 05:27:03;;;;;;;13.68;6.28;;;1.80;99.90;;;;;;4876471;29;20028;-91
2022/11/21 05:29:28;;;;;;;15.73;7.75;;;1.80;99.90;;;;;;4891824;29;20029;-86
2022/11/21 05:31:54;;;;;;;15.25;7.18;;;1.80;99.90;;;;;;4893210;29;20448;-88
2022/11/21 05:34:20;;;;;;;13.20;6.72;;;1.90;99.90;;;;;;4901368;29;20429;-84
2022/11/21 05:36:46;;;;;;;18.38;8.80;;;1.90;99.90;;;;;;4879176;29;20036;-88
2022/11/21 05:39:11;;;;;;;15.23;7.13;;;1.80;99.90;;;;;;4891681;29;20061;-89
2022/11/21 05:41:37;;;;;;;17.13;8.55;;;1.80;99.90;;;;;;4878494;29;20385;-91
2022/11/21 05:44:03;;;;;;;17.95;8.95;;;1.80;99.90;;;;;;4902910;29;20045;-90
2022/11/21 05:46:28;;;;;;;16.30;7.75;;;1.80;99.90;;;;;;4874769;29;20107;-89
2022/11/21 05:48:54;;;;;;;18.48;8.85;;;1.90;99.90;;;;;;4895120;29;20041;-83
2022/11/21 05:51:21;;;;;;;16.90;8.20;;;1.90;99.90;;;;;;4891423;29;20037;-89
2022/11/21 05:53:47;;;;;;;16.10;8.07;;;1.80;99.90;;;;;;4877530;29;20061;-82
2022/11/21 05:56:18;;;;;;;16.63;8.55;;;1.80;99.90;;;;;;4891297;29;20044;-81
2022/11/21 05:58:44;;;;;;;17.25;8.27;;;1.90;99.90;;;;;;4892891;29;20216;-84
2022/11/21 06:01:13;;;;;;;16.88;8.77;;;1.80;99.90;;;;;;4892948;29;20378;-84
2022/11/21 06:03:40;;;;;;;14.73;7.03;;;1.90;99.90;;;;;;4875217;29;20499;-83
2022/11/21 06:06:09;;;;;;;13.57;7.70;;;1.90;99.90;;;;;;4879059;29;20185;-83
2022/11/21 06:08:43;;;;;;;15.55;7.75;;;1.90;99.90;;;;;;4891022;29;20029;-83
2022/11/21 06:11:11;;;;;;;14.48;7.53;;;1.90;99.90;;;;;;4900606;29;20032;-84
2022/11/21 06:13:37;;;;;;;13.75;6.13;;;2.00;99.90;;;;;;4890236;29;20036;-84
2022/11/21 06:16:07;;;;;;;14.70;7.60;;;2.00;99.90;;;;;;4900481;29;20047;-84
2022/11/21 06:18:35;;;;;;;14.68;6.85;;;2.00;99.90;;;;;;4904594;29;20028;-85
2022/11/21 06:21:07;;;;;;;16.65;7.30;;;2.00;99.90;;;;;;4898626;29;20504;-83
2022/11/21 06:23:33;;;;;;;12.63;6.88;;;2.00;99.90;;;;;;4889240;29;20041;-85
2022/11/21 06:26:01;;;;;;;14.35;7.80;;;2.00;99.90;;;;;;4904653;29;20107;-83
2022/11/21 06:28:32;;;;;;;15.20;7.72;;;2.00;99.90;;;;;;4876444;29;20148;-84
2022/11/21 06:31:05;;;;;;;13.48;6.43;;;2.00;99.90;;;;;;4894499;29;20036;-85
2022/11/21 06:33:31;;;;;;;17.63;7.55;;;2.00;99.90;;;;;;4889815;29;20028;-85
2022/11/21 06:36:00;;;;;;;18.42;9.07;;;2.00;99.90;;;;;;4877396;29;20061;-84
2022/11/21 06:38:26;;;;;;;15.90;7.40;;;2.10;99.90;;;;;;4905410;29;20057;-83
2022/11/21 06:40:52;;;;;;;15.80;7.50;;;2.00;99.90;;;;;;4889331;29;20032;-84
2022/11/21 06:43:17;;;;;;;17.25;8.90;;;2.10;99.90;;;;;;4890159;29;20087;-82
2022/11/21 06:45:43;;;;;;;17.30;7.72;;;2.10;99.90;;;;;;4891678;29;20103;-82
2022/11/21 06:48:09;;;;;;;14.00;6.45;;;2.00;99.90;;;;;;4892576;29;20502;-82
2022/11/21 06:50:34;;;;;;;17.52;8.18;;;2.10;99.90;;;;;;4892847;29;20544;-85
2022/11/21 06:53:00;;;;;;;15.45;7.85;;;2.00;99.90;;;;;;4903453;29;20064;-85
2022/11/21 06:55:27;;;;;;;16.13;7.63;;;2.00;99.90;;;;;;4890363;29;20115;-85
2022/11/21 06:57:57;;;;;;;17.73;8.35;;;2.10;99.90;;;;;;4888794;29;20036;-84
2022/11/21 07:00:23;;;;;;;15.20;7.95;;;2.10;99.90;;;;;;4893062;29;20510;-83
2022/11/21 07:02:49;;;;;;;14.85;6.32;;;2.00;99.90;;;;;;4906788;29;20037;-82
2022/11/21 07:05:15;;;;;;;15.30;6.55;;;2.10;99.90;;;;;;4889957;29;20047;-81
2022/11/21 07:07:40;;;;;;;15.77;7.40;;;2.10;99.90;;;;;;4891935;29;20040;-82
2022/11/21 07:10:06;;;;;;;15.75;6.80;;;2.10;99.90;;;;;;4876118;29;20040;-82
2022/11/21 07:15:18;;;;;;;13.27;6.80;;;2.10;99.90;;;;;;4904359;29;20561;-85
2022/11/21 07:17:43;;;;;;;11.90;5.00;;;2.20;99.90;;;;;;4873856;29;20119;-82
2022/11/21 07:20:10;;;;;;;13.13;6.32;;;2.20;99.90;;;;;;4890442;29;20076;-82
2022/11/21 07:22:35;;;;;;;16.10;6.95;;;2.10;99.90;;;;;;4874349;29;20105;-82
2022/11/21 07:25:01;;;;;;;11.88;5.78;;;2.20;99.90;;;;;;4888668;29;20037;-83
2022/11/21 07:27:27;;;;;;;14.20;6.75;;;2.20;99.90;;;;;;4889545;29;20370;-84
2022/11/21 07:29:52;;;;;;;13.65;6.00;;;2.20;99.90;;;;;;4905750;29;20170;-85
2022/11/21 07:32:18;;;;;;;13.43;6.72;;;2.20;99.90;;;;;;4876688;29;20115;-84
2022/11/21 07:34:44;;;;;;;12.93;6.95;;;2.20;99.90;;;;;;4891917;29;20045;-84
2022/11/21 07:37:09;;;;;;;12.68;6.93;;;2.20;99.90;;;;;;4871863;29;20043;-84
2022/11/21 07:39:36;;;;;;;14.48;6.82;;;2.20;99.90;;;;;;4889083;29;20055;-83
2022/11/21 07:42:01;;;;;;;9.18;4.07;;;2.20;99.90;;;;;;4890949;29;20032;-84
2022/11/21 07:44:28;;;;;;;10.25;4.40;;;2.20;99.90;;;;;;4887640;29;20033;-84
2022/11/21 07:46:55;;;;;;;9.75;4.82;;;2.30;99.90;;;;;;4903111;29;20101;-82
2022/11/21 07:49:21;;;;;;;9.68;4.47;;;2.30;99.90;;;;;;4904235;29;20112;-84
2022/11/21 07:51:46;;;;;;;11.38;5.20;;;2.30;99.90;;;;;;4876179;29;20036;-85
2022/11/21 07:54:12;;;;;;;9.05;4.90;;;2.30;99.90;;;;;;4871572;29;20041;-84
2022/11/21 07:56:38;;;;;;;8.73;4.13;;;2.30;99.90;;;;;;4902019;29;20096;-85
2022/11/21 07:59:03;;;;;;;9.07;4.65;;;2.40;99.90;;;;;;4891644;29;20028;-82
2022/11/21 08:01:29;;;;;;;11.48;5.50;;;2.40;99.90;;;;;;4889221;29;20466;-83
2022/11/21 08:03:55;;;;;;;12.93;6.63;;;2.40;99.90;;;;;;4892028;29;20036;-82
2022/11/21 08:06:20;;;;;;;11.07;5.55;;;2.40;99.90;;;;;;4889796;29;20095;-82
2022/11/21 08:08:47;;;;;;;9.38;4.78;;;2.40;99.90;;;;;;4904606;29;20180;-85
2022/11/21 08:11:13;;;;;;;12.00;6.28;;;2.40;99.90;;;;;;4888548;29;20040;-83
2022/11/21 08:13:39;;;;;;;12.48;6.82;;;2.40;99.90;;;;;;4875865;29;20029;-82
2022/11/21 08:16:04;;;;;;;13.43;6.40;;;2.40;99.90;;;;;;4888919;29;20033;-85
2022/11/21 08:18:30;;;;;;;13.88;6.55;;;2.50;99.90;;;;;;4899807;29;20526;-83
2022/11/21 08:20:59;;;;;;;12.95;6.10;;;2.50;99.90;;;;;;4903885;29;20037;-84
2022/11/21 08:23:24;;;;;;;11.48;5.60;;;2.50;99.90;;;;;;4871838;29;20080;-84
2022/11/21 08:25:50;;;;;;;14.40;6.70;;;2.50;99.90;;;;;;4874838;29;20040;-83
2022/11/21 08:28:16;;;;;;;13.25;6.32;;;2.50;99.90;;;;;;4887330;29;20044;-82
2022/11/21 08:30:42;;;;;;;12.20;6.05;;;2.60;99.90;;;;;;4890808;29;20036;-84
2022/11/21 08:33:07;;;;;;;11.25;5.70;;;2.70;99.90;;;;;;4897016;29;20040;-81
2022/11/21 08:35:36;;;;;;;10.80;5.80;;;2.70;99.90;;;;;;4869723;29;20061;-83
2022/11/21 08:38:02;;;;;;;10.93;5.32;;;2.70;99.90;;;;;;4892352;29;20052;-81
2022/11/21 08:40:30;;;;;;;10.52;5.47;;;2.70;99.90;;;;;;4867107;29;20144;-84
2022/11/21 08:43:03;;;;;;;11.65;5.72;;;2.70;99.90;;;;;;4898727;29;20037;-83
2022/11/21 08:45:29;;;;;;;13.00;5.55;;;2.70;99.90;;;;;;4887847;29;20080;-83
2022/11/21 08:47:55;;;;;;;12.88;6.07;;;2.70;99.90;;;;;;4887010;29;20389;-84
2022/11/21 08:50:21;;;;;;;12.85;5.97;;;2.70;99.90;;;;;;4887811;29;20040;-84
2022/11/21 08:52:47;;;;;;;11.77;5.68;;;2.70;99.90;;;;;;4888674;29;20075;-84
2022/11/21 08:55:13;;;;;;;13.35;5.82;;;2.80;99.90;;;;;;4889256;29;20056;-82
2022/11/21 08:57:40;;;;;;;13.32;5.80;;;2.80;99.90;;;;;;4901172;29;20052;-84
2022/11/21 09:00:06;;;;;;;12.18;5.55;;;2.80;99.90;;;;;;4872493;29;20021;-83
2022/11/21 09:02:32;;;;;;;15.90;7.32;;;2.90;99.90;;;;;;4887753;29;20040;-81
2022/11/21 09:04:58;;;;;;;16.27;5.82;;;2.90;99.90;;;;;;4887224;29;20037;-84
2022/11/21 09:07:24;;;;;;;16.45;7.65;;;2.90;99.90;;;;;;4872915;29;20037;-81
2022/11/21 09:09:50;;;;;;;13.18;6.25;;;3.00;99.90;;;;;;4904056;29;20130;-80
2022/11/21 09:12:16;;;;;;;15.13;5.88;;;3.10;99.90;;;;;;4888031;29;20029;-81
2022/11/21 09:20:10;;;;;;;17.95;7.43;;;3.20;99.90;;;;;;4903946;29;20047;-85
2022/11/21 09:22:35;;;;;;;14.80;7.18;;;3.20;99.90;;;;;;4875312;29;20044;-84
2022/11/21 09:25:01;;;;;;;14.70;6.38;;;3.30;99.90;;;;;;4892622;29;20512;-80
2022/11/21 09:27:27;;;;;;;13.25;6.35;;;3.40;99.90;;;;;;4875636;29;20035;-85
2022/11/21 09:29:52;;;;;;;12.50;5.38;;;3.40;99.90;;;;;;4906541;29;20517;-85
2022/11/21 09:32:18;;;;;;;11.00;4.65;;;3.50;99.90;;;;;;4892506;29;20425;-83
2022/11/21 09:34:44;;;;;;;13.55;5.60;;;3.50;99.90;;;;;;4890329;29;20044;-81
2022/11/21 09:37:09;;;;;;;13.35;5.05;;;3.50;99.90;;;;;;4871443;29;20024;-84
2022/11/21 09:39:35;;;;;;;14.57;5.85;;;3.60;99.90;;;;;;4906173;29;20032;-82
2022/11/21 09:42:29;;;;;;;12.95;5.57;;;3.70;99.90;;;;;;4892875;29;20033;-84
2022/11/21 09:45:10;;;;;;;13.35;5.32;;;3.70;99.90;;;;;;4869084;29;20096;-85
2022/11/21 09:47:44;;;;;;;13.00;5.05;;;3.70;99.90;;;;;;4894198;29;20123;-84
2022/11/21 09:50:13;;;;;;;15.98;7.32;;;3.70;99.90;;;;;;4888522;29;20084;-84
2022/11/21 09:52:47;;;;;;;16.30;6.78;;;3.80;99.90;;;;;;4874541;29;20462;-82
2022/11/21 09:55:26;;;;;;;15.80;6.60;;;3.80;99.90;;;;;;4890020;29;20437;-81
2022/11/21 09:57:53;;;;;;;16.50;7.47;;;3.90;99.90;;;;;;4904434;29;20111;-84
2022/11/21 10:00:22;;;;;;;17.77;8.23;;;3.90;99.90;;;;;;4890506;29;20029;-85
2022/11/21 10:02:49;;;;;;;15.25;7.15;;;3.90;99.90;;;;;;4893161;29;20124;-85
2022/11/21 10:05:15;;;;;;;17.67;7.32;;;3.80;99.90;;;;;;4891632;29;20036;-82
2022/11/21 10:07:42;;;;;;;17.55;8.13;;;3.90;99.90;;;;;;4875195;29;20088;-84
2022/11/21 10:10:16;;;;;;;22.80;9.43;;;3.90;99.90;;;;;;4891822;29;20044;-83
2022/11/21 10:13:04;;;;;;;19.05;8.32;;;3.90;99.90;;;;;;4893221;29;20060;-82
2022/11/21 10:15:47;;;;;;;20.45;9.13;;;3.90;99.90;;;;;;4872486;29;20092;-82
2022/11/21 10:18:52;;;;;;;19.83;9.45;;;3.90;99.90;;;;;;4875011;29;20034;-83
2022/11/21 10:21:29;;;;;;;17.50;8.48;;;4.00;99.90;;;;;;4889163;29;20031;-84
2022/11/21 10:24:19;;;;;;;20.58;8.13;;;4.00;99.90;;;;;;4905593;29;20041;-85
2022/11/21 10:26:59;;;;;;;16.95;7.15;;;4.10;99.90;;;;;;4886662;29;20039;-85
2022/11/21 10:29:39;;;;;;;16.57;7.03;;;4.00;99.90;;;;;;4889450;29;20491;-84
2022/11/21 10:32:26;;;;;;;18.38;9.18;;;4.10;99.90;;;;;;4884498;29;20043;-82
2022/11/21 10:34:58;;;;;;;15.52;5.85;;;4.20;99.90;;;;;;4886444;29;20191;-83
2022/11/21 10:37:39;;;;;;;15.80;6.68;;;4.20;99.90;;;;;;4891914;29;20080;-81
2022/11/21 10:40:30;;;;;;;14.02;6.03;;;4.20;99.90;;;;;;4886699;29;20047;-85
2022/11/21 10:46:10;;;;;;;14.02;5.78;;;4.30;99.90;;;;;;4889420;29;20024;-82
2022/11/21 10:48:36;;;;;;;17.73;8.20;;;4.40;99.90;;;;;;4888075;29;20115;-85
2022/11/21 10:51:33;;;;;;;22.38;8.32;;;4.50;99.90;;;;;;4888390;29;20407;-85
2022/11/21 10:56:55;;;;;;;19.20;7.43;;;4.50;99.90;;;;;;4889918;29;20398;-85
2022/11/21 10:59:26;;;;;;;22.23;9.75;;;4.50;99.90;;;;;;4890310;29;20116;-81
2022/11/21 11:02:01;;;;;;;18.90;8.75;;;4.50;99.90;;;;;;4884802;29;20064;-81
2022/11/21 11:04:29;;;;;;;20.88;8.85;;;4.50;99.90;;;;;;4869455;29;20024;-84
2022/11/21 11:06:55;;;;;;;22.48;9.57;;;4.50;99.90;;;;;;4905444;29;20066;-84
2022/11/21 11:09:29;;;;;;;23.45;9.10;;;4.60;99.90;;;;;;4890895;29;20033;-83
2022/11/21 11:15:31;;;;;;;22.92;9.65;;;4.70;99.90;;;;;;4883892;29;20044;-83
2022/11/21 11:18:00;;;;;;;26.35;9.48;;;4.80;99.90;;;;;;4888296;29;20028;-85
2022/11/21 11:20:36;;;;;;;24.30;9.65;;;4.80;99.90;;;;;;4870840;29;20028;-85
2022/11/21 11:23:26;;;;;;;20.60;7.82;;;4.80;99.90;;;;;;4887286;29;20028;-85
2022/11/21 11:25:56;;;;;;;21.45;9.40;;;4.90;99.90;;;;;;4889978;29;20137;-81
2022/11/21 11:28:23;;;;;;;21.58;9.15;;;4.90;99.90;;;;;;4889077;29;20037;-84
2022/11/21 11:30:51;;;;;;;22.73;9.85;;;5.00;99.90;;;;;;4873601;29;20100;-86
2022/11/21 11:33:30;;;;;;;18.23;8.52;;;5.10;99.90;;;;;;4887188;29;20362;-85
2022/11/21 11:36:20;;;;;;;19.48;8.38;;;5.30;99.90;;;;;;4890145;29;20060;-85
2022/11/21 11:38:59;;;;;;;;;;;5.40;99.90;;;;;;4887637;29;20055;-85
2022/11/21 11:47:37;;;;;;;15.05;7.47;;;5.50;99.90;;;;;;4887875;29;20035;-82
2022/11/21 11:50:18;;;;;;;20.67;8.95;;;5.60;99.90;;;;;;4873549;29;20067;-85
2022/11/21 11:52:56;;;;;;;18.17;8.50;;;5.80;99.90;;;;;;4886827;29;20461;-86
2022/11/21 11:55:34;;;;;;;16.45;7.97;;;6.00;99.90;;;;;;4871673;29;20035;-85
2022/11/21 11:58:05;;;;;;;15.50;7.43;;;6.10;99.90;;;;;;4888668;29;20025;-86
2022/11/21 12:00:39;;;;;;;15.52;7.32;;;6.10;99.90;;;;;;4888951;29;20040;-82
2022/11/21 12:03:20;;;;;;;17.20;9.18;;;6.10;99.90;;;;;;4903565;29;20485;-82
2022/11/21 12:06:04;;;;;;;17.35;8.38;;;6.20;99.90;;;;;;4886063;29;20036;-85
2022/11/21 12:08:38;;;;;;;21.45;10.55;;;6.30;99.90;;;;;;4888378;29;20469;-82
2022/11/21 12:15:47;;;;;;;15.60;9.15;;;6.30;99.90;;;;;;4888235;29;20036;-85
2022/11/21 12:17:06;;;;;;;19.92;9.50;;;6.30;99.90;;;;;;4888402;29;20036;-84
2022/11/21 12:19:33;;;;;;;16.20;8.00;;;6.30;99.90;;;;;;4870055;29;20049;-85
2022/11/21 12:22:02;;;;;;;16.55;8.43;;;6.30;99.90;;;;;;4886402;29;20299;-83
2022/11/21 12:24:27;;;;;;;11.70;6.57;;;6.40;99.90;;;;;;4902185;29;20096;-85
2022/11/21 12:26:59;;;;;;;15.43;9.25;;;6.40;99.90;;;;;;4888142;29;20032;-84
2022/11/21 12:29:51;;;;;;;17.48;9.55;;;6.50;99.90;;;;;;4888748;29;20044;-85
2022/11/21 12:32:32;;;;;;;16.13;8.60;;;6.60;99.90;;;;;;4887755;29;20496;-85
2022/11/21 12:35:40;;;;;;;16.73;9.82;;;6.60;99.90;;;;;;4890561;29;20588;-84
2022/11/21 12:38:21;;;;;;;14.52;8.00;;;6.70;99.90;;;;;;4886842;29;20442;-86
2022/11/21 12:44:17;;;;;;;12.32;6.82;;;6.90;99.90;;;;;;4887586;29;20029;-84
2022/11/21 12:47:04;;;;;;;10.80;6.78;;;6.90;99.90;;;;;;4889444;29;20076;-84
2022/11/21 12:55:38;;;;;;;12.20;5.93;;;6.90;99.90;;;;;;4890192;29;20485;-85
2022/11/21 12:58:33;;;;;;;11.60;6.50;;;6.90;99.90;;;;;;4890459;29;20116;-82
2022/11/21 13:01:16;;;;;;;8.50;5.10;;;6.80;99.90;;;;;;4900980;29;20149;-81
2022/11/21 13:04:10;;;;;;;12.52;5.80;;;6.80;99.90;;;;;;4892503;29;20032;-85
2022/11/21 13:06:40;;;;;;;9.25;5.90;;;6.80;99.90;;;;;;4890271;29;20031;-85
2022/11/21 13:09:13;;;;;;;;;;;6.80;99.90;;;;;;4895101;29;20033;-81
2022/11/21 13:12:00;;;;;;;9.15;4.97;;;6.80;99.90;;;;;;4893369;29;19927;-84
2022/11/21 13:14:47;;;;;;;9.23;4.95;;;6.80;99.90;;;;;;4890128;29;20028;-85
2022/11/21 13:17:25;;;;;;;7.05;4.47;;;6.80;99.90;;;;;;4889230;29;20165;-84
2022/11/21 13:19:53;;;;;;;10.00;5.70;;;6.80;99.90;;;;;;4872534;29;20024;-85
2022/11/21 13:22:34;;;;;;;8.07;5.57;;;6.90;99.90;;;;;;4899558;29;20036;-85
2022/11/21 13:25:31;;;;;;;7.82;5.40;;;6.90;99.90;;;;;;4875295;29;20028;-84
2022/11/21 13:28:12;;;;;;;7.68;5.28;;;6.90;99.90;;;;;;4890016;29;20417;-85
2022/11/21 13:30:47;;;;;;;7.22;4.70;;;6.90;99.90;;;;;;4891771;29;20048;-85
2022/11/21 13:33:34;;;;;;;5.57;3.95;;;6.90;99.90;;;;;;4890141;29;20067;-83
2022/11/21 13:36:03;;;;;;;7.95;4.05;;;6.90;99.90;;;;;;4891301;29;20049;-85
2022/11/21 13:38:29;;;;;;;5.97;3.40;;;6.90;99.90;;;;;;4890926;29;20041;-85
2022/11/21 13:43:40;;;;;;;5.38;3.53;;;6.90;99.90;;;;;;4906291;29;20068;-84